createdAt,value
2018-07-08T08:25:16.397Z,29.80
2018-07-08T08:27:45.842Z,29.80
2018-07-08T08:30:15.385Z,29.60
2018-07-08T08:32:44.847Z,29.30
2018-07-08T08:35:19.281Z,29.20
2018-07-08T08:37:56.038Z,29.60
2018-07-08T08:40:27.497Z,29.70
2018-07-08T08:42:57.032Z,29.80
2018-07-08T08:45:28.812Z,29.60
2018-07-08T08:47:58.678Z,29.50
2018-07-08T08:50:28.137Z,29.70
2018-07-08T08:52:58.138Z,29.60
2018-07-08T08:55:28.661Z,29.60
2018-07-08T08:57:58.192Z,29.50
2018-07-08T09:00:27.812Z,29.70
2018-07-08T09:02:57.268Z,29.80
2018-07-08T09:05:26.735Z,29.90
2018-07-08T09:07:56.369Z,30.00
2018-07-08T09:10:26.820Z,29.80
2018-07-08T09:15:25.174Z,30.20
2018-07-08T09:17:54.628Z,30.00
2018-07-08T09:20:24.591Z,30.10
2018-07-08T09:22:54.980Z,30.30
2018-07-08T09:25:24.469Z,30.30
2018-07-08T09:30:23.183Z,29.90
2018-07-08T09:32:52.797Z,29.80
2018-07-08T09:35:22.584Z,30.20
2018-07-08T09:40:21.502Z,30.40
2018-07-08T09:42:51.376Z,30.20
2018-07-08T09:45:21.093Z,30.00
2018-07-08T09:47:50.953Z,29.90
2018-07-08T09:50:20.465Z,29.80
2018-07-08T09:52:51.134Z,29.90
2018-07-08T09:55:21.154Z,30.10
2018-07-08T09:57:50.601Z,30.40
2018-07-08T10:00:20.297Z,30.60
2018-07-08T10:02:50.152Z,30.70
2018-07-08T10:05:19.620Z,30.80
2018-07-08T10:07:49.078Z,30.80
2018-07-08T10:10:18.578Z,30.70
2018-07-08T10:12:48.045Z,30.70
2018-07-08T10:15:17.485Z,30.50
2018-07-08T10:17:47.000Z,30.60
2018-07-08T10:20:16.441Z,30.00
2018-07-08T10:25:14.826Z,30.10
2018-07-08T10:28:01.141Z,30.30
2018-07-08T10:30:32.056Z,30.50
2018-07-08T10:33:15.694Z,30.50
2018-07-08T10:36:00.431Z,30.10
2018-07-08T10:38:30.001Z,30.10
2018-07-08T10:41:00.372Z,30.50
2018-07-08T10:43:30.586Z,30.70
2018-07-08T10:48:29.389Z,30.30
2018-07-08T10:50:58.921Z,30.50
2018-07-08T10:53:32.443Z,30.50
2018-07-08T10:56:03.719Z,30.40
2018-07-08T10:58:39.334Z,30.50
2018-07-08T11:01:09.180Z,30.50
2018-07-08T11:03:44.302Z,30.60
2018-07-08T11:06:16.113Z,30.70
2018-07-08T11:08:47.142Z,31.00
2018-07-08T11:11:17.740Z,30.80
2018-07-08T11:16:18.217Z,30.60
2018-07-08T11:18:49.241Z,30.70
2018-07-08T11:21:20.699Z,31.10
2018-07-08T11:23:51.075Z,31.10
2018-07-08T11:26:23.409Z,31.30
2018-07-08T11:28:54.563Z,31.20
2018-07-08T11:31:25.378Z,31.00
2018-07-08T11:33:55.245Z,31.10
2018-07-08T11:36:25.057Z,31.50
2018-07-08T11:38:55.420Z,31.40
2018-07-08T11:41:25.977Z,31.80
2018-07-08T11:43:56.522Z,32.00
2018-07-08T11:46:27.365Z,32.10
2018-07-08T11:48:57.442Z,31.50
2018-07-08T11:51:28.304Z,31.50
2018-07-08T11:53:58.035Z,31.60
2018-07-08T11:56:28.227Z,31.80
2018-07-08T11:58:58.493Z,31.90
2018-07-08T12:01:27.944Z,31.60
2018-07-08T12:03:58.465Z,31.40
2018-07-08T12:06:28.553Z,31.30
2018-07-08T12:08:59.205Z,31.20
2018-07-08T12:11:28.769Z,31.40
2018-07-08T12:13:58.289Z,31.30
2018-07-08T12:16:28.701Z,31.10
2018-07-08T12:18:58.908Z,31.10
2018-07-08T12:21:28.738Z,30.80
2018-07-08T12:23:59.558Z,30.30
2018-07-08T12:26:29.385Z,30.30
2018-07-08T12:28:59.913Z,30.30
2018-07-08T12:31:29.964Z,30.80
2018-07-08T12:34:02.205Z,30.90
2018-07-08T12:36:36.640Z,31.20
2018-07-08T12:39:13.380Z,31.30
2018-07-08T12:41:43.531Z,31.50
2018-07-08T12:44:16.578Z,31.50
2018-07-08T12:46:48.956Z,31.30
2018-07-08T12:49:18.811Z,31.80
2018-07-08T12:51:51.275Z,31.90
2018-07-08T12:54:23.537Z,32.20
2018-07-08T12:56:56.110Z,32.50
2018-07-08T12:59:25.903Z,32.10
2018-07-08T13:01:56.458Z,31.90
2018-07-08T13:04:26.978Z,31.20
2018-07-08T13:06:58.842Z,31.50
2018-07-08T13:09:28.333Z,31.80
2018-07-08T13:12:00.196Z,32.10
2018-07-08T13:14:30.008Z,32.70
2018-07-08T13:16:59.486Z,32.90
2018-07-08T13:19:28.980Z,32.60
2018-07-08T13:21:58.808Z,32.30
2018-07-08T13:24:28.655Z,32.20
2018-07-08T13:26:58.136Z,32.50
2018-07-08T13:29:27.722Z,32.90
2018-07-08T13:31:57.465Z,32.50
2018-07-08T13:34:31.779Z,32.20
2018-07-08T13:37:03.410Z,32.20
2018-07-08T13:39:40.737Z,32.40
2018-07-08T13:42:15.221Z,32.30
2018-07-08T13:44:49.487Z,32.30
2018-07-08T13:47:23.120Z,32.40
2018-07-08T13:49:54.525Z,31.90
2018-07-08T13:52:24.817Z,32.10
2018-07-08T13:54:54.901Z,32.10
2018-07-08T13:57:26.253Z,32.10
2018-07-08T13:59:55.959Z,32.00
2018-07-08T14:02:26.573Z,31.50
2018-07-08T14:04:58.108Z,31.20
2018-07-08T14:07:28.681Z,30.90
2018-07-08T14:09:59.505Z,30.80
2018-07-08T14:12:29.685Z,30.70
2018-07-08T14:15:10.016Z,29.90
2018-07-08T14:17:44.610Z,29.70
2018-07-08T14:20:19.568Z,30.10
2018-07-08T14:22:51.529Z,30.20
2018-07-08T14:25:24.084Z,30.20
2018-07-08T14:27:55.577Z,30.10
2018-07-08T14:30:26.557Z,29.80
2018-07-08T14:32:57.393Z,29.80
2018-07-08T14:35:27.372Z,29.70
2018-07-08T14:37:57.542Z,29.50
2018-07-08T14:40:27.938Z,29.50
2018-07-08T14:45:28.423Z,29.60
2018-07-08T14:47:58.762Z,29.70
2018-07-08T14:50:28.929Z,29.60
2018-07-08T14:52:59.904Z,29.30
2018-07-08T14:55:30.856Z,29.60
2018-07-08T14:58:01.485Z,29.60
2018-07-08T15:00:32.006Z,29.50
2018-07-08T15:03:02.396Z,29.30
2018-07-08T15:05:32.237Z,29.20
2018-07-08T15:08:02.544Z,29.10
2018-07-08T15:10:32.550Z,29.30
2018-07-08T15:13:02.665Z,29.20
2018-07-08T15:15:33.367Z,29.30
2018-07-08T15:18:03.561Z,29.30
2018-07-08T15:20:33.457Z,29.10
2018-07-08T15:23:03.045Z,29.10
2018-07-08T15:25:33.303Z,29.10
2018-07-08T15:28:04.278Z,28.70
2018-07-08T15:30:35.006Z,28.70
2018-07-08T15:33:05.100Z,28.90
2018-07-08T15:35:35.266Z,29.10
2018-07-08T15:38:05.829Z,29.00
2018-07-08T15:40:36.215Z,29.00
2018-07-08T15:43:06.413Z,28.90
2018-07-08T15:45:37.197Z,28.70
2018-07-08T15:48:07.729Z,28.40
2018-07-08T15:50:38.182Z,28.50
2018-07-08T15:53:08.478Z,28.70
2018-07-08T15:55:38.829Z,28.70
2018-07-08T15:58:09.985Z,28.60
2018-07-08T16:00:40.970Z,28.60
2018-07-08T16:03:10.936Z,28.60
2018-07-08T16:05:40.837Z,28.60
2018-07-08T16:08:10.586Z,28.80
2018-07-08T16:10:40.058Z,28.70
2018-07-08T16:13:09.565Z,28.70
2018-07-08T16:15:39.065Z,28.80
2018-07-08T16:18:09.290Z,28.80
2018-07-08T16:20:39.166Z,28.70
2018-07-08T16:23:09.467Z,28.70
2018-07-08T16:25:39.421Z,28.50
2018-07-08T16:28:09.481Z,28.50
2018-07-08T16:30:39.612Z,28.40
2018-07-08T16:33:09.666Z,28.30
2018-07-08T16:35:46.650Z,28.10
2018-07-08T16:38:16.838Z,28.20
2018-07-08T16:40:46.780Z,28.40
2018-07-08T16:43:17.130Z,28.40
2018-07-08T16:45:47.139Z,28.40
2018-07-08T16:48:17.797Z,28.20
2018-07-08T16:53:18.484Z,28.10
2018-07-08T16:55:48.229Z,27.90
2018-07-08T16:58:17.977Z,27.70
2018-07-08T17:00:47.743Z,27.70
2018-07-08T17:03:17.836Z,27.80
2018-07-08T17:05:47.689Z,28.10
2018-07-08T17:08:17.481Z,28.30
2018-07-08T17:10:48.157Z,28.30
2018-07-08T17:13:17.953Z,28.40
2018-07-08T17:15:47.678Z,28.00
2018-07-08T17:18:17.876Z,27.80
2018-07-08T17:20:48.440Z,27.90
2018-07-08T17:23:18.403Z,28.00
2018-07-08T17:25:48.548Z,27.90
2018-07-08T17:28:18.682Z,27.90
2018-07-08T17:30:48.772Z,27.90
2018-07-08T17:35:48.875Z,27.70
2018-07-08T17:38:18.819Z,27.70
2018-07-08T17:40:49.334Z,27.70
2018-07-08T17:43:19.547Z,27.70
2018-07-08T17:45:50.137Z,27.70
2018-07-08T17:48:20.946Z,27.70
2018-07-08T17:50:51.142Z,27.50
2018-07-08T17:53:20.579Z,27.30
2018-07-08T17:55:50.506Z,27.40
2018-07-08T17:58:21.264Z,27.40
2018-07-08T18:00:51.362Z,27.40
2018-07-08T18:03:21.029Z,27.40
2018-07-08T18:05:50.742Z,27.30
2018-07-08T18:08:20.856Z,27.10
2018-07-08T18:10:51.233Z,27.10
2018-07-08T18:13:20.917Z,27.20
2018-07-08T18:15:51.361Z,27.00
2018-07-08T18:18:21.797Z,26.90
2018-07-08T18:20:51.637Z,26.90
2018-07-08T18:23:21.846Z,26.90
2018-07-08T18:25:52.101Z,26.90
2018-07-08T18:28:36.568Z,26.90
2018-07-08T18:31:09.520Z,27.00
2018-07-08T18:33:41.185Z,26.90
2018-07-08T18:36:16.404Z,26.90
2018-07-08T18:38:46.229Z,26.90
2018-07-08T18:41:16.838Z,26.80
2018-07-08T18:43:47.173Z,26.70
2018-07-08T18:46:18.122Z,26.60
2018-07-08T18:48:48.338Z,26.60
2018-07-08T18:51:17.922Z,26.60
2018-07-08T18:53:47.894Z,26.70
2018-07-08T18:56:18.027Z,26.70
2018-07-08T18:58:48.293Z,26.70
2018-07-08T19:01:18.533Z,26.60
2018-07-08T19:03:49.045Z,26.60
2018-07-08T19:06:18.927Z,26.70
2018-07-08T19:08:48.949Z,26.50
2018-07-08T19:11:19.807Z,26.40
2018-07-08T19:13:50.131Z,26.20
2018-07-08T19:16:20.530Z,26.20
2018-07-08T19:18:51.040Z,26.20
2018-07-08T19:21:21.087Z,26.10
2018-07-08T19:23:51.120Z,26.10
2018-07-08T19:26:21.818Z,26.20
2018-07-08T19:28:53.109Z,26.30
2018-07-08T19:31:23.783Z,26.30
2018-07-08T19:33:53.933Z,26.30
2018-07-08T19:36:24.278Z,26.30
2018-07-08T19:38:54.457Z,26.30
2018-07-08T19:41:24.549Z,26.30
2018-07-08T19:43:54.502Z,26.30
2018-07-08T19:46:25.065Z,26.40
2018-07-08T19:49:01.265Z,26.50
2018-07-08T19:51:30.740Z,26.50
2018-07-08T19:54:01.875Z,26.40
2018-07-08T19:56:31.464Z,26.30
2018-07-08T19:59:02.142Z,26.40
2018-07-08T20:01:32.443Z,26.60
2018-07-08T20:04:02.367Z,26.50
2018-07-08T20:06:32.097Z,26.10
2018-07-08T20:09:02.664Z,26.00
2018-07-08T20:11:32.813Z,25.90
2018-07-08T20:14:03.133Z,25.90
2018-07-08T20:16:32.926Z,25.90
2018-07-08T20:19:03.270Z,25.90
2018-07-08T20:21:33.533Z,25.90
2018-07-08T20:24:07.019Z,25.80
2018-07-08T20:26:36.553Z,25.80
2018-07-08T20:29:07.020Z,25.80
2018-07-08T20:31:37.261Z,25.80
2018-07-08T20:34:08.377Z,25.80
2018-07-08T20:36:42.699Z,25.80
2018-07-08T20:39:16.090Z,25.80
2018-07-08T20:41:50.084Z,25.90
2018-07-08T20:44:23.302Z,25.90
2018-07-08T20:46:53.524Z,26.00
2018-07-08T20:49:24.221Z,25.90
2018-07-08T20:51:55.772Z,25.90
2018-07-08T20:54:26.249Z,25.80
2018-07-08T20:56:56.700Z,25.60
2018-07-08T20:59:26.733Z,25.60
2018-07-08T21:01:57.838Z,25.70
2018-07-08T21:04:28.065Z,25.70
2018-07-08T21:09:27.484Z,25.60
2018-07-08T21:11:57.925Z,25.60
2018-07-08T21:14:28.033Z,25.60
2018-07-08T21:19:27.805Z,25.60
2018-07-08T21:22:01.566Z,25.60
2018-07-08T21:24:31.545Z,25.60
2018-07-08T21:27:01.570Z,25.60
2018-07-08T21:29:32.104Z,25.60
2018-07-08T21:32:02.162Z,25.50
2018-07-08T21:34:33.003Z,25.50
2018-07-08T21:37:03.013Z,25.50
2018-07-08T21:39:33.428Z,25.50
2018-07-08T21:42:03.441Z,25.50
2018-07-08T21:44:33.881Z,25.50
2018-07-08T21:47:03.889Z,25.50
2018-07-08T21:49:33.492Z,25.50
2018-07-08T21:52:03.396Z,25.50
2018-07-08T21:54:33.388Z,25.40
2018-07-08T21:57:03.271Z,25.40
2018-07-08T21:59:33.780Z,25.30
2018-07-08T22:02:05.937Z,25.30
2018-07-08T22:04:35.734Z,25.20
2018-07-08T22:07:10.921Z,25.20
2018-07-08T22:09:40.495Z,25.20
2018-07-08T22:12:10.077Z,25.20
2018-07-08T22:14:39.676Z,25.20
2018-07-08T22:17:10.341Z,25.20
2018-07-08T22:19:40.569Z,25.20
2018-07-08T22:22:11.089Z,25.20
2018-07-08T22:24:41.261Z,25.20
2018-07-08T22:27:11.469Z,25.10
2018-07-08T22:29:41.361Z,25.00
2018-07-08T22:32:15.049Z,25.00
2018-07-08T22:34:46.301Z,25.00
2018-07-08T22:37:16.034Z,24.90
2018-07-08T22:39:45.606Z,24.90
2018-07-08T22:42:15.900Z,24.90
2018-07-08T22:44:46.061Z,24.90
2018-07-08T22:47:15.995Z,24.90
2018-07-08T22:49:45.873Z,24.90
2018-07-08T22:52:15.490Z,24.90
2018-07-08T22:54:46.052Z,24.90
2018-07-08T22:57:16.017Z,24.90
2018-07-08T22:59:56.390Z,24.90
2018-07-08T23:02:37.033Z,24.90
2018-07-08T23:05:08.209Z,24.90
2018-07-08T23:07:38.241Z,24.90
2018-07-08T23:10:08.951Z,24.80
2018-07-08T23:12:38.806Z,24.80
2018-07-08T23:15:08.885Z,24.80
2018-07-08T23:17:43.313Z,24.60
2018-07-08T23:20:13.473Z,24.50
2018-07-08T23:22:53.865Z,24.50
2018-07-08T23:25:23.381Z,24.40
2018-07-08T23:27:53.857Z,24.40
2018-07-08T23:30:24.263Z,24.30
2018-07-08T23:32:54.379Z,24.10
2018-07-08T23:35:25.092Z,24.00
2018-07-08T23:37:55.210Z,23.80
2018-07-08T23:40:25.670Z,23.60
2018-07-08T23:42:55.572Z,23.60
2018-07-08T23:45:26.024Z,23.60
2018-07-08T23:47:56.425Z,23.60
2018-07-08T23:50:26.530Z,23.60
2018-07-08T23:52:56.961Z,23.60
2018-07-08T23:55:27.089Z,23.60
2018-07-08T23:57:56.602Z,23.50
